createdAt,value
2019-04-10T00:00:47.948Z,5.89
2019-04-10T00:01:47.494Z,5.99
2019-04-10T00:02:48.062Z,5.97
2019-04-10T00:03:48.300Z,5.98
2019-04-10T00:04:47.487Z,5.84
2019-04-10T00:05:47.965Z,5.94
2019-04-10T00:06:48.006Z,5.83
2019-04-10T00:07:47.976Z,5.82
2019-04-10T00:08:47.452Z,5.84
2019-04-10T00:09:47.546Z,5.82
2019-04-10T00:10:47.956Z,5.80
2019-04-10T00:11:47.428Z,5.71
2019-04-10T00:12:47.686Z,5.73
2019-04-10T00:13:47.419Z,5.72
2019-04-10T00:14:48.183Z,5.73
2019-04-10T00:15:48.600Z,5.71
2019-04-10T00:16:47.390Z,5.64
2019-04-10T00:17:47.393Z,5.73
2019-04-10T00:18:48.249Z,5.66
2019-04-10T00:19:47.705Z,5.59
2019-04-10T00:20:47.363Z,5.66
2019-04-10T00:21:47.427Z,5.61
2019-04-10T00:22:47.355Z,5.56
2019-04-10T00:23:47.349Z,5.61
2019-04-10T00:24:48.334Z,5.51
2019-04-10T00:25:47.336Z,5.54
2019-04-10T00:26:48.031Z,5.48
2019-04-10T00:27:47.318Z,5.48
2019-04-10T00:28:47.696Z,5.53
2019-04-10T00:29:47.311Z,5.47
2019-04-10T00:30:47.299Z,5.43
2019-04-10T00:31:47.291Z,5.36
2019-04-10T00:32:48.095Z,5.44
2019-04-10T00:33:47.282Z,5.38
2019-04-10T00:34:47.660Z,5.38
2019-04-10T00:35:47.736Z,5.35
2019-04-10T00:36:47.260Z,5.35
2019-04-10T00:37:47.248Z,5.38
2019-04-10T00:38:48.254Z,5.33
2019-04-10T00:39:47.238Z,5.28
2019-04-10T00:40:47.872Z,5.23
2019-04-10T00:41:48.260Z,5.21
2019-04-10T00:42:47.397Z,5.20
2019-04-10T00:43:47.204Z,5.18
2019-04-10T00:44:48.054Z,5.15
2019-04-10T00:45:47.193Z,5.14
2019-04-10T00:46:47.182Z,5.10
2019-04-10T00:47:47.764Z,5.14
2019-04-10T00:48:48.079Z,5.14
2019-04-10T00:49:48.181Z,5.14
2019-04-10T00:50:47.164Z,5.00
2019-04-10T00:51:47.824Z,5.04
2019-04-10T00:52:48.220Z,5.00
2019-04-10T00:53:47.566Z,5.00
2019-04-10T00:54:47.132Z,5.07
2019-04-10T00:55:48.129Z,4.92
2019-04-10T00:56:47.116Z,4.93
2019-04-10T00:57:47.734Z,5.02
2019-04-10T00:58:47.869Z,4.87
2019-04-10T00:59:47.106Z,4.94
2019-04-10T01:00:47.643Z,4.86
2019-04-10T01:01:47.822Z,4.84
2019-04-10T01:02:47.131Z,4.89
2019-04-10T01:03:48.582Z,4.86
2019-04-10T01:04:47.067Z,4.77
2019-04-10T01:05:47.200Z,4.86
2019-04-10T01:06:47.046Z,4.78
2019-04-10T01:07:47.157Z,4.74
2019-04-10T01:08:47.033Z,4.70
2019-04-10T01:09:47.888Z,4.75
2019-04-10T01:10:47.013Z,4.66
2019-04-10T01:11:47.522Z,4.71
2019-04-10T01:12:47.968Z,4.63
2019-04-10T01:13:47.414Z,4.66
2019-04-10T01:14:47.672Z,4.68
2019-04-10T01:15:46.977Z,4.58
2019-04-10T01:16:47.355Z,4.55
2019-04-10T01:17:46.962Z,4.58
2019-04-10T01:18:47.798Z,4.59
2019-04-10T01:19:48.032Z,4.58
2019-04-10T01:20:48.011Z,4.62
2019-04-10T01:21:46.930Z,4.56
2019-04-10T01:22:47.676Z,4.56
2019-04-10T01:23:46.925Z,4.55
2019-04-10T01:24:48.014Z,4.48
2019-04-10T01:25:46.908Z,4.53
2019-04-10T01:26:47.565Z,4.58
2019-04-10T01:27:47.930Z,4.53
2019-04-10T01:28:47.143Z,4.41
2019-04-10T01:29:46.879Z,4.44
2019-04-10T01:30:46.865Z,4.44
2019-04-10T01:31:47.680Z,4.42
2019-04-10T01:32:46.850Z,4.41
2019-04-10T01:33:47.450Z,4.40
2019-04-10T01:34:46.839Z,4.40
2019-04-10T01:35:46.832Z,4.37
2019-04-10T01:36:46.820Z,4.34
2019-04-10T01:37:53.513Z,4.41
2019-04-10T01:38:46.812Z,4.30
2019-04-10T01:39:46.800Z,4.28
2019-04-10T01:40:47.634Z,4.34
2019-04-10T01:41:46.785Z,4.24
2019-04-10T01:43:00.780Z,4.34
2019-04-10T01:43:46.854Z,4.28
2019-04-10T01:44:47.094Z,4.17
2019-04-10T01:45:46.759Z,4.16
2019-04-10T01:46:46.751Z,4.12
2019-04-10T01:47:47.617Z,4.24
2019-04-10T01:48:46.733Z,4.28
2019-04-10T01:49:46.962Z,4.12
2019-04-10T01:50:46.721Z,4.12
2019-04-10T01:51:47.630Z,4.06
2019-04-10T01:52:47.151Z,4.12
2019-04-10T01:53:46.694Z,4.12
2019-04-10T01:54:47.131Z,4.04
2019-04-10T01:55:47.089Z,4.04
2019-04-10T01:56:46.670Z,4.05
2019-04-10T01:57:46.676Z,4.06
2019-04-10T01:58:47.694Z,4.04
2019-04-10T01:59:46.655Z,4.01
2019-04-10T02:00:46.649Z,4.01
2019-04-10T02:01:46.638Z,3.98
2019-04-10T02:02:47.662Z,3.95
2019-04-10T02:03:46.633Z,3.96
2019-04-10T02:04:46.616Z,3.91
2019-04-10T02:05:47.113Z,3.83
2019-04-10T02:06:46.596Z,3.74
2019-04-10T02:07:59.437Z,3.70
2019-04-10T02:08:46.584Z,3.87
2019-04-10T02:09:47.655Z,3.81
2019-04-10T02:10:46.570Z,3.78
2019-04-10T02:11:46.560Z,3.74
2019-04-10T02:12:47.231Z,3.76
2019-04-10T02:13:47.606Z,3.73
2019-04-10T02:14:46.820Z,3.70
2019-04-10T02:15:46.529Z,3.76
2019-04-10T02:16:47.288Z,3.73
2019-04-10T02:17:46.685Z,3.76
2019-04-10T02:18:46.502Z,3.73
2019-04-10T02:19:46.495Z,3.70
2019-04-10T02:20:47.364Z,3.65
2019-04-10T02:21:47.512Z,3.70
2019-04-10T02:22:46.472Z,3.65
2019-04-10T02:23:46.915Z,3.62
2019-04-10T02:24:47.271Z,3.66
2019-04-10T02:25:47.213Z,3.56
2019-04-10T02:26:46.670Z,3.58
2019-04-10T02:27:46.782Z,3.60
2019-04-10T02:28:47.080Z,3.51
2019-04-10T02:29:46.421Z,3.51
2019-04-10T02:30:47.777Z,3.44
2019-04-10T02:31:46.885Z,3.44
2019-04-10T02:32:48.093Z,3.53
2019-04-10T02:33:47.379Z,3.55
2019-04-10T02:34:48.321Z,3.41
2019-04-10T02:35:47.698Z,3.48
2019-04-10T02:36:46.931Z,3.41
2019-04-10T02:37:49.528Z,3.36
2019-04-10T02:38:59.306Z,3.32
2019-04-10T02:39:50.254Z,3.32
2019-04-10T02:40:47.488Z,3.29
2019-04-10T02:41:46.501Z,3.32
2019-04-10T02:42:47.354Z,3.28
2019-04-10T02:43:47.469Z,3.34
2019-04-10T02:44:48.094Z,3.28
2019-04-10T02:45:46.977Z,3.29
2019-04-10T02:46:47.346Z,3.31
2019-04-10T02:47:47.451Z,3.22
2019-04-10T02:48:47.581Z,3.16
2019-04-10T02:49:47.098Z,3.16
2019-04-10T02:50:46.257Z,3.07
2019-04-10T02:51:47.611Z,3.16
2019-04-10T02:52:48.216Z,3.13
2019-04-10T02:53:48.044Z,3.13
2019-04-10T02:54:46.238Z,3.18
2019-04-10T02:55:47.499Z,3.14
2019-04-10T02:56:47.705Z,3.10
2019-04-10T02:57:46.674Z,3.16
2019-04-10T02:58:47.099Z,3.05
2019-04-10T02:59:47.063Z,3.11
2019-04-10T03:00:46.432Z,3.04
2019-04-10T03:01:47.429Z,2.98
2019-04-10T03:02:47.751Z,3.01
2019-04-10T03:03:46.505Z,3.03
2019-04-10T03:04:46.594Z,2.95
2019-04-10T03:05:46.666Z,2.92
2019-04-10T03:06:47.120Z,2.89
2019-04-10T03:07:46.463Z,2.86
2019-04-10T03:09:05.944Z,2.87
2019-04-10T03:10:00.962Z,2.85
2019-04-10T03:10:52.634Z,2.85
2019-04-10T03:11:47.433Z,2.85
2019-04-10T03:12:46.386Z,2.85
2019-04-10T03:13:47.282Z,2.86
2019-04-10T03:14:47.602Z,2.95
2019-04-10T03:15:47.512Z,2.75
2019-04-10T03:16:46.052Z,2.83
2019-04-10T03:17:46.261Z,2.79
2019-04-10T03:18:46.031Z,2.77
2019-04-10T03:19:46.025Z,2.77
2019-04-10T03:20:46.806Z,2.77
2019-04-10T03:21:47.082Z,2.72
2019-04-10T03:22:47.119Z,2.77
2019-04-10T03:23:45.995Z,2.68
2019-04-10T03:24:46.487Z,2.72
2019-04-10T03:25:45.974Z,2.75
2019-04-10T03:26:45.971Z,2.71
2019-04-10T03:27:46.867Z,2.72
2019-04-10T03:28:45.954Z,2.68
2019-04-10T03:29:46.397Z,2.68
2019-04-10T03:30:46.696Z,2.71
2019-04-10T03:31:47.779Z,2.68
2019-04-10T03:32:51.569Z,2.60
2019-04-10T03:33:49.369Z,2.67
2019-04-10T03:34:48.234Z,2.67
2019-04-10T03:35:47.116Z,2.67
2019-04-10T03:36:45.889Z,2.60
2019-04-10T03:37:46.686Z,2.56
2019-04-10T03:38:55.347Z,2.64
2019-04-10T03:39:46.756Z,2.56
2019-04-10T03:40:45.903Z,2.51
2019-04-10T03:41:45.846Z,2.56
2019-04-10T03:42:45.835Z,2.60
2019-04-10T03:43:45.874Z,2.51
2019-04-10T03:44:45.824Z,2.49
2019-04-10T03:45:46.687Z,2.50
2019-04-10T03:46:46.833Z,2.56
2019-04-10T03:47:45.800Z,2.43
2019-04-10T03:48:45.790Z,2.51
2019-04-10T03:49:46.333Z,2.44
2019-04-10T03:50:45.923Z,2.39
2019-04-10T03:51:45.762Z,2.43
2019-04-10T03:52:45.762Z,2.43
2019-04-10T03:53:46.647Z,2.43
2019-04-10T03:54:46.068Z,2.43
2019-04-10T03:55:45.733Z,2.38
2019-04-10T03:56:45.782Z,2.43
2019-04-10T03:57:46.872Z,2.28
2019-04-10T03:58:45.705Z,2.44
2019-04-10T03:59:45.701Z,2.29
2019-04-10T04:00:46.710Z,2.36
2019-04-10T04:01:45.685Z,2.42
2019-04-10T04:02:46.394Z,2.38
2019-04-10T04:03:45.776Z,2.32
2019-04-10T04:04:46.024Z,2.38
2019-04-10T04:05:46.552Z,2.38
2019-04-10T04:06:46.041Z,2.38
2019-04-10T04:07:46.497Z,2.35
2019-04-10T04:08:45.884Z,2.32
2019-04-10T04:09:46.044Z,2.28
2019-04-10T04:10:45.811Z,2.43
2019-04-10T04:11:46.121Z,2.31
2019-04-10T04:12:46.693Z,2.39
2019-04-10T04:13:45.909Z,2.35
2019-04-10T04:14:46.383Z,2.31
2019-04-10T04:15:46.335Z,2.28
2019-04-10T04:16:45.558Z,2.31
2019-04-10T04:17:46.508Z,2.29
2019-04-10T04:18:45.702Z,2.28
2019-04-10T04:19:46.279Z,2.32
2019-04-10T04:20:45.530Z,2.20
2019-04-10T04:21:45.522Z,2.18
2019-04-10T04:22:46.122Z,2.20
2019-04-10T04:23:45.497Z,2.24
2019-04-10T04:24:46.129Z,2.18
2019-04-10T04:25:46.244Z,2.28
2019-04-10T04:26:46.474Z,2.28
2019-04-10T04:27:46.342Z,2.31
2019-04-10T04:28:45.458Z,2.29
2019-04-10T04:29:45.469Z,2.36
2019-04-10T04:30:45.719Z,2.31
2019-04-10T04:31:45.430Z,2.32
2019-04-10T04:32:46.148Z,2.32
2019-04-10T04:33:45.416Z,2.32
2019-04-10T04:34:45.485Z,2.35
2019-04-10T04:35:45.897Z,2.32
2019-04-10T04:36:45.390Z,2.32
2019-04-10T04:37:46.276Z,2.20
2019-04-10T04:38:45.376Z,2.35
2019-04-10T04:39:45.391Z,2.28
2019-04-10T04:40:46.321Z,2.32
2019-04-10T04:41:45.350Z,2.26
2019-04-10T04:42:45.344Z,2.33
2019-04-10T04:43:47.176Z,2.35
2019-04-10T04:44:45.454Z,2.33
2019-04-10T04:45:46.250Z,2.25
2019-04-10T04:46:45.307Z,2.29
2019-04-10T04:47:45.299Z,2.28
2019-04-10T04:48:45.399Z,2.18
2019-04-10T04:49:45.285Z,2.13
2019-04-10T04:50:45.717Z,2.20
2019-04-10T04:51:45.718Z,2.20
2019-04-10T04:52:45.660Z,2.25
2019-04-10T04:53:45.252Z,2.28
2019-04-10T04:54:45.629Z,2.26
2019-04-10T04:55:45.232Z,2.29
2019-04-10T04:56:46.273Z,2.24
2019-04-10T04:57:45.219Z,2.26
2019-04-10T04:58:45.616Z,2.22
2019-04-10T04:59:45.196Z,2.29
2019-04-10T05:00:45.942Z,2.32
2019-04-10T05:01:45.180Z,2.31
2019-04-10T05:02:45.177Z,2.26
2019-04-10T05:03:46.082Z,2.26
2019-04-10T05:04:45.841Z,2.32
2019-04-10T05:05:45.153Z,2.32
2019-04-10T05:06:45.818Z,2.29
2019-04-10T05:07:55.517Z,2.14
2019-04-10T05:08:46.256Z,2.20
2019-04-10T05:09:45.972Z,2.20
2019-04-10T05:10:45.373Z,2.18
2019-04-10T05:11:45.094Z,2.29
2019-04-10T05:12:45.263Z,2.32
2019-04-10T05:13:45.084Z,2.32
2019-04-10T05:14:46.083Z,2.28
2019-04-10T05:15:45.069Z,2.26
2019-04-10T05:16:45.698Z,2.33
2019-04-10T05:17:45.152Z,2.29
2019-04-10T05:18:45.682Z,2.28
2019-04-10T05:19:45.032Z,2.31
2019-04-10T05:20:49.636Z,2.26
2019-04-10T05:21:45.664Z,2.31
2019-04-10T05:22:45.667Z,2.29
2019-04-10T05:23:44.998Z,2.26
2019-04-10T05:24:44.995Z,2.36
2019-04-10T05:25:45.489Z,2.35
2019-04-10T05:26:44.970Z,2.33
2019-04-10T05:27:44.964Z,2.33
2019-04-10T05:28:44.956Z,2.44
2019-04-10T05:29:45.107Z,2.38
2019-04-10T05:30:45.256Z,2.42
2019-04-10T05:31:44.929Z,2.44
2019-04-10T05:32:44.923Z,2.47
2019-04-10T05:33:44.966Z,2.42
2019-04-10T05:34:44.904Z,2.42
2019-04-10T05:35:45.054Z,2.42
2019-04-10T05:36:44.890Z,2.49
2019-04-10T05:37:45.688Z,2.50
2019-04-10T05:38:45.978Z,2.50
2019-04-10T05:39:49.128Z,2.51
2019-04-10T05:40:44.858Z,2.65
2019-04-10T05:41:44.850Z,2.65
2019-04-10T05:42:45.017Z,2.60
2019-04-10T05:43:44.850Z,2.64
2019-04-10T05:44:44.825Z,2.61
2019-04-10T05:45:44.816Z,2.68
2019-04-10T05:46:45.238Z,2.71
2019-04-10T05:47:44.802Z,2.68
2019-04-10T05:48:44.789Z,2.86
2019-04-10T05:49:45.030Z,2.82
2019-04-10T05:50:53.857Z,2.83
2019-04-10T05:51:45.724Z,2.83
2019-04-10T05:52:45.109Z,2.89
2019-04-10T05:53:44.941Z,2.92
2019-04-10T05:54:44.744Z,2.95
2019-04-10T05:55:45.224Z,3.03
2019-04-10T05:56:44.843Z,2.95
2019-04-10T05:57:44.878Z,2.98
2019-04-10T05:58:44.907Z,3.04
2019-04-10T05:59:44.704Z,3.04
2019-04-10T06:00:45.056Z,3.04
2019-04-10T06:01:45.732Z,3.23
2019-04-10T06:02:44.678Z,3.21
2019-04-10T06:03:45.652Z,3.21
2019-04-10T06:04:45.478Z,3.28
2019-04-10T06:05:44.657Z,3.21
2019-04-10T06:06:44.645Z,3.32
2019-04-10T06:07:45.443Z,3.37
2019-04-10T06:08:44.630Z,3.41
2019-04-10T06:09:54.092Z,3.41
2019-04-10T06:10:45.664Z,3.53
2019-04-10T06:11:45.780Z,3.50
2019-04-10T06:12:44.780Z,3.41
2019-04-10T06:13:45.168Z,3.44
2019-04-10T06:14:44.584Z,3.56
2019-04-10T06:15:45.437Z,3.56
2019-04-10T06:16:44.774Z,3.69
2019-04-10T06:17:44.894Z,3.70
2019-04-10T06:18:45.181Z,3.77
2019-04-10T06:19:44.831Z,3.73
2019-04-10T06:20:45.263Z,3.76
2019-04-10T06:21:44.536Z,3.74
2019-04-10T06:22:45.495Z,3.84
2019-04-10T06:23:44.516Z,3.94
2019-04-10T06:24:44.674Z,3.99
2019-04-10T06:25:45.669Z,4.04
2019-04-10T06:26:45.788Z,4.14
2019-04-10T06:27:45.020Z,4.01
2019-04-10T06:28:44.478Z,4.10
2019-04-10T06:29:45.016Z,4.20
2019-04-10T06:30:44.470Z,4.26
2019-04-10T06:31:45.085Z,4.30
2019-04-10T06:32:45.463Z,4.34
2019-04-10T06:33:44.498Z,4.32
2019-04-10T06:34:44.433Z,4.28
2019-04-10T06:35:44.740Z,4.24
2019-04-10T06:36:44.431Z,4.30
2019-04-10T06:37:44.412Z,4.30
2019-04-10T06:38:45.402Z,4.45
2019-04-10T06:39:44.987Z,4.42
2019-04-10T06:40:44.389Z,4.52
2019-04-10T06:41:44.383Z,4.55
2019-04-10T06:42:49.770Z,4.70
2019-04-10T06:43:45.350Z,4.66
2019-04-10T06:44:44.600Z,4.70
2019-04-10T06:45:44.357Z,4.59
2019-04-10T06:46:44.500Z,4.70
2019-04-10T06:47:44.550Z,4.68
2019-04-10T06:48:44.562Z,4.78
2019-04-10T06:49:44.325Z,4.90
2019-04-10T06:50:44.774Z,4.90
2019-04-10T06:51:45.110Z,4.87
2019-04-10T06:52:45.053Z,4.92
2019-04-10T06:53:44.984Z,4.99
2019-04-10T06:54:44.845Z,4.97
2019-04-10T06:55:44.891Z,5.11
2019-04-10T06:56:45.372Z,5.21
2019-04-10T06:57:50.934Z,5.32
2019-04-10T06:58:44.414Z,5.28
2019-04-10T06:59:44.251Z,5.46
2019-04-10T07:00:48.646Z,5.33
2019-04-10T07:01:48.807Z,5.51
2019-04-10T07:02:44.409Z,5.53
2019-04-10T07:03:52.735Z,5.39
2019-04-10T07:04:51.564Z,5.50
2019-04-10T07:05:59.899Z,5.51
2019-04-10T07:06:57.525Z,5.56
2019-04-10T07:07:51.270Z,5.66
2019-04-10T07:08:49.846Z,5.72
2019-04-10T07:09:45.342Z,5.73
2019-04-10T07:10:53.083Z,5.79
2019-04-10T07:11:44.951Z,5.87
2019-04-10T07:12:44.172Z,5.91
2019-04-10T07:13:44.936Z,6.05
2019-04-10T07:14:47.712Z,5.91
2019-04-10T07:15:45.464Z,6.08
2019-04-10T07:16:44.343Z,6.19
2019-04-10T07:17:45.024Z,6.36
2019-04-10T07:18:47.771Z,6.39
2019-04-10T07:19:45.636Z,6.44
2019-04-10T07:20:44.223Z,6.51
2019-04-10T07:21:44.115Z,6.62
2019-04-10T07:22:46.539Z,6.59
2019-04-10T07:23:44.981Z,6.74
2019-04-10T07:24:44.130Z,6.74
2019-04-10T07:25:45.774Z,6.70
2019-04-10T07:26:46.583Z,6.79
2019-04-10T07:27:44.173Z,6.87
2019-04-10T07:28:46.333Z,6.84
2019-04-10T07:29:44.628Z,7.00
2019-04-10T07:30:44.054Z,7.14
2019-04-10T07:31:44.680Z,7.15
2019-04-10T07:32:47.265Z,7.20
2019-04-10T07:33:45.160Z,7.28
2019-04-10T07:34:44.524Z,7.18
2019-04-10T07:35:44.354Z,7.28
2019-04-10T07:36:45.517Z,7.35
2019-04-10T07:37:44.493Z,7.36
2019-04-10T07:38:44.012Z,7.50
2019-04-10T07:39:44.786Z,7.67
2019-04-10T07:40:44.965Z,7.79
2019-04-10T07:41:45.169Z,7.88
2019-04-10T07:42:44.206Z,8.06
2019-04-10T07:43:44.771Z,8.09
2019-04-10T07:44:43.981Z,8.19
2019-04-10T07:45:43.971Z,8.27
2019-04-10T07:46:43.977Z,8.36
2019-04-10T07:47:44.122Z,8.41
2019-04-10T07:48:43.959Z,8.36
2019-04-10T07:49:44.093Z,8.30
2019-04-10T07:50:45.552Z,8.41
2019-04-10T07:51:44.634Z,8.45
2019-04-10T07:52:43.935Z,8.42
2019-04-10T07:53:43.927Z,8.56
2019-04-10T07:54:44.996Z,8.69
2019-04-10T07:55:57.487Z,8.60
2019-04-10T07:56:43.913Z,8.45
2019-04-10T07:57:47.247Z,8.38
2019-04-10T07:58:44.034Z,8.44
2019-04-10T07:59:43.896Z,8.48
2019-04-10T08:00:44.827Z,8.66
2019-04-10T08:01:43.891Z,8.82
2019-04-10T08:02:43.885Z,8.82
2019-04-10T08:03:43.920Z,8.81
2019-04-10T08:04:43.880Z,8.76
2019-04-10T08:05:44.106Z,8.94
2019-04-10T08:06:44.704Z,8.99
2019-04-10T08:07:44.934Z,8.97
2019-04-10T08:08:44.797Z,9.04
2019-04-10T08:09:44.526Z,9.00
2019-04-10T08:10:45.082Z,9.08
2019-04-10T08:11:44.792Z,8.91
2019-04-10T08:12:50.031Z,9.02
2019-04-10T08:13:44.816Z,9.14
2019-04-10T08:14:44.275Z,9.16
2019-04-10T08:15:43.824Z,9.41
2019-04-10T08:16:43.823Z,9.34
2019-04-10T08:17:44.429Z,9.54
2019-04-10T08:18:43.808Z,9.64
2019-04-10T08:19:43.811Z,9.73
2019-04-10T08:20:44.131Z,9.72
2019-04-10T08:21:44.352Z,9.76
2019-04-10T08:22:44.860Z,9.89
2019-04-10T08:23:44.583Z,10.01
2019-04-10T08:24:46.206Z,10.12
2019-04-10T08:25:43.805Z,10.23
2019-04-10T08:26:43.782Z,10.13
2019-04-10T08:27:43.871Z,10.17
2019-04-10T08:28:43.778Z,10.19
2019-04-10T08:29:43.778Z,10.26
2019-04-10T08:30:43.960Z,10.22
2019-04-10T08:31:44.264Z,10.22
2019-04-10T08:32:54.927Z,10.41
2019-04-10T08:33:44.109Z,10.57
2019-04-10T08:34:44.260Z,10.61
2019-04-10T08:35:43.759Z,10.26
2019-04-10T08:36:43.758Z,10.46
2019-04-10T08:37:43.770Z,10.56
2019-04-10T08:38:43.748Z,10.64
2019-04-10T08:39:47.240Z,10.86
2019-04-10T08:40:43.946Z,10.56
2019-04-10T08:41:43.807Z,10.68
2019-04-10T08:42:46.052Z,10.78
2019-04-10T08:43:43.895Z,11.05
2019-04-10T08:44:44.524Z,10.89
2019-04-10T08:45:48.675Z,11.10
2019-04-10T08:46:44.187Z,11.29
2019-04-10T08:47:44.253Z,11.37
2019-04-10T08:48:43.722Z,11.04
2019-04-10T08:49:43.719Z,10.76
2019-04-10T08:50:44.017Z,10.93
2019-04-10T08:51:43.746Z,11.11
2019-04-10T08:52:44.558Z,10.93
2019-04-10T08:53:44.619Z,11.26
2019-04-10T08:54:44.630Z,11.30
2019-04-10T08:55:43.708Z,11.40
2019-04-10T08:56:44.846Z,11.44
2019-04-10T08:57:43.847Z,11.47
2019-04-10T08:58:43.689Z,11.29
2019-04-10T08:59:44.505Z,11.40
2019-04-10T09:00:44.805Z,11.30
2019-04-10T09:01:43.678Z,11.43
2019-04-10T09:02:44.432Z,11.52
2019-04-10T09:03:43.673Z,11.86
2019-04-10T09:04:44.705Z,11.68
2019-04-10T09:05:44.814Z,11.70
2019-04-10T09:06:43.975Z,11.59
2019-04-10T09:07:44.265Z,11.77
2019-04-10T09:08:43.704Z,11.83
2019-04-10T09:09:43.819Z,11.80
2019-04-10T09:10:44.746Z,11.88
2019-04-10T09:11:43.648Z,11.84
2019-04-10T09:12:43.651Z,11.68
2019-04-10T09:13:44.391Z,11.78
2019-04-10T09:14:43.641Z,11.94
2019-04-10T09:15:43.635Z,12.09
2019-04-10T09:16:44.758Z,12.15
2019-04-10T09:17:43.848Z,12.28
2019-04-10T09:18:43.630Z,12.47
2019-04-10T09:19:44.347Z,12.55
2019-04-10T09:20:43.662Z,12.72
2019-04-10T09:21:43.739Z,12.95
2019-04-10T09:23:07.617Z,12.80
2019-04-10T09:23:50.227Z,12.75
2019-04-10T09:24:44.603Z,12.86
2019-04-10T09:25:43.777Z,13.00
2019-04-10T09:26:44.537Z,13.04
2019-04-10T09:27:44.217Z,13.09
2019-04-10T09:28:43.605Z,13.13
2019-04-10T09:29:44.522Z,13.31
2019-04-10T09:30:44.819Z,13.39
2019-04-10T09:31:43.996Z,13.35
2019-04-10T09:32:44.398Z,13.31
2019-04-10T09:33:43.590Z,13.30
2019-04-10T09:34:46.403Z,13.42
2019-04-10T09:35:44.623Z,13.33
2019-04-10T09:36:43.756Z,13.28
2019-04-10T09:37:43.580Z,13.18
2019-04-10T09:38:44.135Z,12.78
2019-04-10T09:39:43.572Z,13.08
2019-04-10T09:40:44.647Z,13.16
2019-04-10T09:41:43.909Z,13.39
2019-04-10T09:42:43.835Z,13.49
2019-04-10T09:43:43.562Z,13.49
2019-04-10T09:44:44.387Z,13.42
2019-04-10T09:45:43.798Z,13.27
2019-04-10T09:46:43.557Z,13.31
2019-04-10T09:47:43.885Z,13.60
2019-04-10T09:48:44.256Z,13.86
2019-04-10T09:49:46.787Z,13.90
2019-04-10T09:50:43.911Z,14.05
2019-04-10T09:51:43.544Z,14.25
2019-04-10T09:52:44.041Z,14.29
2019-04-10T09:53:43.535Z,14.41
2019-04-10T09:54:43.636Z,14.29
2019-04-10T09:55:44.726Z,14.22
2019-04-10T09:56:44.199Z,14.32
2019-04-10T09:57:43.530Z,14.41
2019-04-10T09:58:44.713Z,14.41
2019-04-10T09:59:45.566Z,14.51
2019-04-10T10:00:43.780Z,14.66
2019-04-10T10:01:44.492Z,14.82
2019-04-10T10:02:43.515Z,14.86
2019-04-10T10:03:44.426Z,14.94
2019-04-10T10:04:43.898Z,14.54
2019-04-10T10:05:44.556Z,14.65
2019-04-10T10:06:43.509Z,14.92
2019-04-10T10:07:43.504Z,14.82
2019-04-10T10:08:43.758Z,14.51
2019-04-10T10:09:43.507Z,14.69
2019-04-10T10:10:43.503Z,14.45
2019-04-10T10:11:43.512Z,14.43
2019-04-10T10:12:43.498Z,14.48
2019-04-10T10:13:43.722Z,14.59
2019-04-10T10:14:44.331Z,14.88
2019-04-10T10:15:43.497Z,15.15
2019-04-10T10:16:44.213Z,15.22
2019-04-10T10:17:44.498Z,15.39
2019-04-10T10:18:43.705Z,15.49
2019-04-10T10:19:43.494Z,15.55
2019-04-10T10:20:43.955Z,15.70
2019-04-10T10:21:43.486Z,15.97
2019-04-10T10:22:43.487Z,16.02
2019-04-10T10:23:44.616Z,16.39
2019-04-10T10:24:43.704Z,16.72
2019-04-10T10:25:43.713Z,16.84
2019-04-10T10:26:46.045Z,16.58
2019-04-10T10:27:44.667Z,16.61
2019-04-10T10:28:43.488Z,16.91
2019-04-10T10:29:44.119Z,16.90
2019-04-10T10:30:43.941Z,16.87
2019-04-10T10:31:44.461Z,16.87
2019-04-10T10:32:43.785Z,16.60
2019-04-10T10:33:43.495Z,16.39
2019-04-10T10:34:43.498Z,16.57
2019-04-10T10:35:43.499Z,17.04
2019-04-10T10:36:46.678Z,17.45
2019-04-10T10:37:43.511Z,17.70
2019-04-10T10:38:43.512Z,17.85
2019-04-10T10:39:43.519Z,17.90
2019-04-10T10:40:43.703Z,17.87
2019-04-10T10:41:44.652Z,17.76
2019-04-10T10:42:43.575Z,18.01
2019-04-10T10:43:44.581Z,18.19
2019-04-10T10:44:43.533Z,18.19
2019-04-10T10:45:43.535Z,18.28
2019-04-10T10:46:43.973Z,18.23
2019-04-10T10:47:44.279Z,18.44
2019-04-10T10:48:44.154Z,18.10
2019-04-10T10:49:44.442Z,18.41
2019-04-10T10:50:43.659Z,18.53
2019-04-10T10:51:44.666Z,18.77
2019-04-10T10:52:43.860Z,18.62
2019-04-10T10:53:44.085Z,18.89
2019-04-10T10:54:43.595Z,19.09
2019-04-10T10:55:43.593Z,19.33
2019-04-10T10:56:44.634Z,19.66
2019-04-10T10:57:43.683Z,19.56
2019-04-10T10:58:43.963Z,18.62
2019-04-10T10:59:43.933Z,18.25
2019-04-10T11:00:43.627Z,17.78
2019-04-10T11:01:44.241Z,18.25
2019-04-10T11:02:43.718Z,18.37
2019-04-10T11:03:44.615Z,18.34
2019-04-10T11:04:43.654Z,18.60
2019-04-10T11:05:44.510Z,18.92
2019-04-10T11:06:55.226Z,19.07
2019-04-10T11:07:43.673Z,19.22
2019-04-10T11:08:43.904Z,18.95
2019-04-10T11:09:44.457Z,19.00
2019-04-10T11:10:47.980Z,18.75
2019-04-10T11:11:43.704Z,18.73
2019-04-10T11:12:44.182Z,18.49
2019-04-10T11:13:43.724Z,18.77
2019-04-10T11:14:43.738Z,18.81
2019-04-10T11:15:45.891Z,18.98
2019-04-10T11:16:43.743Z,19.36
2019-04-10T11:17:44.736Z,19.54
2019-04-10T11:18:43.768Z,19.88
2019-04-10T11:19:45.591Z,19.66
2019-04-10T11:20:43.978Z,19.63
2019-04-10T11:21:44.998Z,19.76
2019-04-10T11:22:44.691Z,19.76
2019-04-10T11:23:43.948Z,19.82
2019-04-10T11:24:44.525Z,19.67
2019-04-10T11:25:43.906Z,19.16
2019-04-10T11:26:44.099Z,18.80
2019-04-10T11:27:43.849Z,18.56
2019-04-10T11:28:43.853Z,18.31
2019-04-10T11:29:45.443Z,18.55
2019-04-10T11:30:44.945Z,18.71
2019-04-10T11:32:44.469Z,18.90
2019-04-10T11:33:49.671Z,19.15
2019-04-10T11:34:43.911Z,19.16
2019-04-10T11:35:44.011Z,19.08
2019-04-10T11:36:44.137Z,19.77
2019-04-10T11:37:46.839Z,19.73
2019-04-10T11:38:45.379Z,19.34
2019-04-10T11:39:47.178Z,19.74
2019-04-10T11:40:45.614Z,19.52
2019-04-10T11:41:45.803Z,19.55
2019-04-10T11:42:44.736Z,19.66
2019-04-10T11:43:46.168Z,19.59
2019-04-10T11:44:45.655Z,19.66
2019-04-10T11:45:48.778Z,19.33
2019-04-10T11:46:44.028Z,19.70
2019-04-10T11:47:44.984Z,19.63
2019-04-10T11:48:45.515Z,19.86
2019-04-10T11:49:45.162Z,20.32
2019-04-10T11:50:44.459Z,20.44
2019-04-10T11:51:46.227Z,20.62
2019-04-10T11:52:49.768Z,20.69
2019-04-10T11:53:47.666Z,21.11
2019-04-10T11:54:46.269Z,21.15
2019-04-10T11:55:50.132Z,21.55
2019-04-10T11:56:48.260Z,21.57
2019-04-10T11:57:45.911Z,20.84
2019-04-10T11:59:47.416Z,20.06
2019-04-10T12:00:51.229Z,19.55
2019-04-10T12:01:46.415Z,19.29
2019-04-10T12:02:47.388Z,19.21
2019-04-10T12:03:50.421Z,19.36
2019-04-10T12:04:52.987Z,19.86
2019-04-10T12:05:46.360Z,20.18
2019-04-10T12:06:46.615Z,20.04
2019-04-10T12:09:08.322Z,20.82
2019-04-10T12:11:17.070Z,21.27
2019-04-10T12:11:44.724Z,21.72
2019-04-10T12:12:44.309Z,21.27
2019-04-10T12:13:44.322Z,21.77
2019-04-10T12:14:44.332Z,22.10
2019-04-10T12:15:45.009Z,22.38
2019-04-10T12:16:45.249Z,22.44
2019-04-10T12:17:44.489Z,22.75
2019-04-10T12:18:44.385Z,23.10
2019-04-10T12:19:44.599Z,23.43
2019-04-10T12:20:45.194Z,23.06
2019-04-10T12:21:44.424Z,23.10
2019-04-10T12:22:44.431Z,21.91
2019-04-10T12:23:45.245Z,21.52
2019-04-10T12:24:44.458Z,19.86
2019-04-10T12:25:45.038Z,19.85
2019-04-10T12:26:44.477Z,19.36
2019-04-10T12:27:45.301Z,19.91
2019-04-10T12:28:44.499Z,20.29
2019-04-10T12:29:44.707Z,20.37
2019-04-10T12:30:45.688Z,19.66
2019-04-10T12:31:44.534Z,19.48
2019-04-10T12:32:45.999Z,19.34
2019-04-10T12:33:44.554Z,18.92
2019-04-10T12:34:44.566Z,19.51
2019-04-10T12:35:45.583Z,20.16
2019-04-10T12:36:44.839Z,20.82
2019-04-10T12:37:45.417Z,21.43
2019-04-10T12:38:44.618Z,21.79
2019-04-10T12:39:45.416Z,22.00
2019-04-10T12:40:44.700Z,22.28
2019-04-10T12:41:45.705Z,22.06
2019-04-10T12:42:44.660Z,22.10
2019-04-10T12:43:45.167Z,22.43
2019-04-10T12:44:44.682Z,22.43
2019-04-10T12:45:44.696Z,22.57
2019-04-10T12:46:45.661Z,21.76
2019-04-10T12:47:44.718Z,21.61
2019-04-10T12:48:45.205Z,21.37
2019-04-10T12:49:44.748Z,20.69
2019-04-10T12:50:45.347Z,20.11
2019-04-10T12:51:45.753Z,20.36
2019-04-10T12:52:45.068Z,20.72
2019-04-10T12:53:45.604Z,20.78
2019-04-10T12:54:45.009Z,20.13
2019-04-10T12:55:45.841Z,19.96
2019-04-10T12:56:44.828Z,20.09
2019-04-10T12:57:45.441Z,20.11
2019-04-10T12:58:44.843Z,20.78
2019-04-10T12:59:45.806Z,21.33
2019-04-10T13:00:44.867Z,21.61
2019-04-10T13:01:44.951Z,22.22
2019-04-10T13:02:44.942Z,22.50
2019-04-10T13:03:44.908Z,22.81
2019-04-10T13:04:45.006Z,22.45
2019-04-10T13:05:45.262Z,22.88
2019-04-10T13:06:44.944Z,23.09
2019-04-10T13:07:45.591Z,23.74
2019-04-10T13:08:55.922Z,23.47
2019-04-10T13:09:44.975Z,23.96
2019-04-10T13:10:45.547Z,23.78
2019-04-10T13:11:45.004Z,23.91
2019-04-10T13:12:45.301Z,23.99